Time;durP1;ratioP1;P1;durP2;ratioP2;P2;SDS_P1;SDS_P2;PMS_P1;PMS_P2;Temp;Humidity;BMP_temperature;BMP_pressure;BME280_temperature;BME280_humidity;BME280_pressure;Samples;Min_cycle;Max_cycle;Signal;HPM_P1;HPM_P2
2021/01/28 00:01:08;;;;;;;4.90;4.40;;;6.90;74.80;;;;;;6184034;23;20452;-74
2021/01/28 00:03:36;;;;;;;5.50;4.97;;;6.80;74.60;;;;;;6185840;23;20410;-75
2021/01/28 00:06:04;;;;;;;6.87;5.13;;;6.90;74.90;;;;;;6185236;23;20975;-75
2021/01/28 00:08:30;;;;;;;6.90;4.50;;;6.90;74.80;;;;;;6186023;23;20429;-75
2021/01/28 00:10:57;;;;;;;5.60;4.00;;;6.90;74.70;;;;;;6185782;23;20894;-75
2021/01/28 00:13:23;;;;;;;3.77;3.47;;;6.90;75.40;;;;;;6185527;23;20472;-75
2021/01/28 00:15:50;;;;;;;5.33;4.83;;;6.90;74.90;;;;;;6185284;23;20414;-75
2021/01/28 00:18:17;;;;;;;4.63;4.23;;;6.90;74.80;;;;;;6185449;23;20468;-75
2021/01/28 00:20:48;;;;;;;4.43;4.03;;;6.90;74.50;;;;;;6185307;23;20425;-75
2021/01/28 00:23:15;;;;;;;10.23;4.73;;;7.00;74.60;;;;;;6185620;23;20408;-75
2021/01/28 00:25:42;;;;;;;7.30;4.30;;;7.00;74.50;;;;;;6184124;23;20449;-75
2021/01/28 00:28:10;;;;;;;4.33;3.93;;;7.00;74.60;;;;;;6185037;23;20492;-74
2021/01/28 00:30:39;;;;;;;4.60;4.07;;;7.00;74.40;;;;;;6185423;23;20743;-75
2021/01/28 00:33:07;;;;;;;4.20;3.80;;;7.00;74.10;;;;;;6185507;23;20410;-74
2021/01/28 00:35:36;;;;;;;7.77;4.77;;;7.00;74.10;;;;;;6185603;23;20407;-74
2021/01/28 00:38:05;;;;;;;4.70;4.27;;;7.00;74.20;;;;;;6185884;23;20411;-74
2021/01/28 00:40:32;;;;;;;6.90;4.70;;;7.00;74.20;;;;;;6185827;23;20424;-74
2021/01/28 00:42:59;;;;;;;3.80;3.40;;;7.00;74.00;;;;;;6185127;23;20406;-74
2021/01/28 00:45:33;;;;;;;4.37;4.00;;;7.00;74.00;;;;;;6185579;23;20451;-75
2021/01/28 00:48:00;;;;;;;4.60;3.97;;;7.00;74.00;;;;;;6184765;23;20749;-74
2021/01/28 00:50:29;;;;;;;6.93;5.03;;;7.00;74.10;;;;;;6185472;23;20405;-75
2021/01/28 00:52:56;;;;;;;5.00;4.43;;;7.00;74.20;;;;;;6183157;23;20421;-75
2021/01/28 00:55:24;;;;;;;5.17;4.70;;;7.00;74.20;;;;;;6185591;23;20414;-74
2021/01/28 00:57:50;;;;;;;5.30;4.80;;;7.00;74.00;;;;;;6184845;23;20402;-74
2021/01/28 01:00:20;;;;;;;3.70;3.40;;;7.00;74.10;;;;;;6185641;23;20441;-74
2021/01/28 01:02:47;;;;;;;4.00;3.60;;;7.00;73.90;;;;;;6185259;23;20414;-74
2021/01/28 01:05:15;;;;;;;4.53;3.77;;;7.00;73.80;;;;;;6186156;23;20781;-74
2021/01/28 01:07:42;;;;;;;4.50;4.10;;;7.00;74.00;;;;;;6185883;23;20411;-74
2021/01/28 01:10:11;;;;;;;3.67;3.37;;;7.00;73.90;;;;;;6185149;23;20410;-74
2021/01/28 01:12:39;;;;;;;4.47;4.17;;;7.00;73.90;;;;;;6185486;23;20413;-74
2021/01/28 01:15:08;;;;;;;5.00;3.90;;;7.00;74.10;;;;;;6185201;23;20415;-74
2021/01/28 01:17:34;;;;;;;5.10;4.60;;;7.00;74.20;;;;;;6185270;23;20924;-74
2021/01/28 01:20:01;;;;;;;3.83;3.53;;;7.00;74.00;;;;;;6182556;23;20457;-74
2021/01/28 01:22:27;;;;;;;4.60;4.20;;;7.00;73.90;;;;;;6185151;23;20485;-74
2021/01/28 01:24:54;;;;;;;5.93;4.43;;;7.00;73.80;;;;;;6184763;23;20457;-75
2021/01/28 01:27:20;;;;;;;3.67;3.37;;;7.00;73.50;;;;;;6185349;23;20408;-75
2021/01/28 01:29:47;;;;;;;5.27;4.83;;;7.00;73.60;;;;;;6185248;23;20898;-75
2021/01/28 01:32:14;;;;;;;4.43;4.03;;;7.00;73.90;;;;;;6185225;23;20419;-75
2021/01/28 01:34:41;;;;;;;4.47;3.57;;;7.00;73.80;;;;;;6184082;23;20941;-75
2021/01/28 01:37:07;;;;;;;5.07;4.57;;;7.00;73.80;;;;;;6185351;23;20430;-74
2021/01/28 01:39:34;;;;;;;5.33;4.50;;;7.00;73.70;;;;;;6184619;23;20476;-74
2021/01/28 01:42:00;;;;;;;4.93;3.03;;;7.00;73.80;;;;;;6185165;23;20480;-74
2021/01/28 01:44:27;;;;;;;4.73;4.10;;;7.10;73.80;;;;;;6184731;23;20417;-75
2021/01/28 01:46:59;;;;;;;4.50;4.10;;;7.10;73.60;;;;;;6182794;23;20417;-72
2021/01/28 01:49:25;;;;;;;6.47;5.17;;;7.10;73.40;;;;;;6184694;23;20410;-74
2021/01/28 01:51:52;;;;;;;5.10;4.43;;;7.10;73.70;;;;;;6184831;23;20920;-74
2021/01/28 01:54:24;;;;;;;4.00;3.70;;;7.10;73.60;;;;;;6184574;23;20424;-75
2021/01/28 01:56:55;;;;;;;8.17;4.50;;;7.10;73.90;;;;;;6184455;23;20422;-75
2021/01/28 01:59:27;;;;;;;6.37;4.20;;;7.10;74.00;;;;;;6184804;23;20447;-75
2021/01/28 02:02:01;;;;;;;3.93;3.53;;;7.10;74.00;;;;;;6183770;23;20999;-74
2021/01/28 02:04:30;;;;;;;5.33;3.90;;;7.10;74.00;;;;;;6184696;23;20943;-75
2021/01/28 02:07:02;;;;;;;7.83;4.33;;;7.10;73.70;;;;;;6184269;23;20451;-74
2021/01/28 02:09:29;;;;;;;7.20;4.90;;;7.10;73.70;;;;;;6183423;23;20430;-74
2021/01/28 02:11:55;;;;;;;6.43;4.17;;;7.10;73.60;;;;;;6183172;23;20419;-74
2021/01/28 02:14:22;;;;;;;5.23;4.67;;;7.10;73.80;;;;;;6181322;23;20437;-75
2021/01/28 02:16:51;;;;;;;4.90;4.40;;;7.00;73.70;;;;;;6183036;23;20797;-75
2021/01/28 02:19:33;;;;;;;4.23;3.93;;;7.00;73.90;;;;;;6183429;23;20422;-75
2021/01/28 02:22:01;;;;;;;6.17;4.40;;;7.10;73.90;;;;;;6185120;23;20925;-75
2021/01/28 02:24:38;;;;;;;4.03;3.63;;;7.10;74.00;;;;;;6183081;23;20410;-75
2021/01/28 02:27:10;;;;;;;4.33;3.93;;;7.10;74.00;;;;;;6183522;23;20410;-74
2021/01/28 02:29:37;;;;;;;4.40;4.03;;;7.10;74.00;;;;;;6184159;23;20416;-75
2021/01/28 02:32:04;;;;;;;4.77;3.83;;;7.10;74.00;;;;;;6184651;23;20421;-75
2021/01/28 02:34:32;;;;;;;4.77;3.93;;;7.10;73.80;;;;;;6184542;23;20924;-75
2021/01/28 02:36:59;;;;;;;4.60;3.73;;;7.10;73.80;;;;;;6184420;23;20415;-75
2021/01/28 02:39:28;;;;;;;4.67;4.00;;;7.10;73.90;;;;;;6182726;23;20434;-75
2021/01/28 02:41:59;;;;;;;4.67;4.17;;;7.20;74.10;;;;;;6184568;23;20465;-75
2021/01/28 02:44:27;;;;;;;4.50;4.00;;;7.20;74.00;;;;;;6184304;23;20489;-75
2021/01/28 02:46:53;;;;;;;4.77;3.50;;;7.20;73.80;;;;;;6184797;23;20767;-75
2021/01/28 02:49:20;;;;;;;4.73;3.23;;;7.20;73.70;;;;;;6184520;23;20414;-75
2021/01/28 02:51:47;;;;;;;3.57;3.27;;;7.20;73.50;;;;;;6184898;23;20417;-75
2021/01/28 02:54:14;;;;;;;3.40;3.13;;;7.20;73.50;;;;;;6184638;23;20468;-75
2021/01/28 02:56:40;;;;;;;5.17;3.60;;;7.20;73.70;;;;;;6184273;23;20416;-75
2021/01/28 02:59:08;;;;;;;2.80;2.60;;;7.20;73.90;;;;;;6184603;23;20911;-75
2021/01/28 03:01:38;;;;;;;3.07;2.87;;;7.20;73.90;;;;;;6183758;23;20416;-75
2021/01/28 03:04:05;;;;;;;2.43;2.23;;;7.30;73.80;;;;;;6184440;23;20406;-75
2021/01/28 03:06:31;;;;;;;3.53;3.23;;;7.20;73.70;;;;;;6182175;23;20446;-74
2021/01/28 03:08:58;;;;;;;3.60;3.30;;;7.30;73.90;;;;;;6156145;23;682709;-75
2021/01/28 03:11:25;;;;;;;3.10;2.80;;;7.30;73.80;;;;;;6186526;23;20174;-75
2021/01/28 03:13:52;;;;;;;5.20;3.53;;;7.30;73.60;;;;;;6186035;23;20574;-75
2021/01/28 03:16:19;;;;;;;2.50;2.37;;;7.30;73.50;;;;;;6186141;23;20415;-75
2021/01/28 03:18:46;;;;;;;3.10;2.90;;;7.30;73.50;;;;;;6186591;23;20413;-75
2021/01/28 03:21:13;;;;;;;3.40;2.67;;;7.30;73.60;;;;;;6186540;23;20409;-75
2021/01/28 03:23:40;;;;;;;3.07;2.77;;;7.30;73.80;;;;;;6186222;23;20418;-75
2021/01/28 03:26:07;;;;;;;2.80;2.50;;;7.30;73.70;;;;;;6185895;23;20457;-75
2021/01/28 03:28:33;;;;;;;3.30;2.40;;;7.40;73.90;;;;;;6186496;23;20415;-75
2021/01/28 03:31:00;;;;;;;2.87;2.50;;;7.40;73.90;;;;;;6185799;23;20418;-75
2021/01/28 03:33:28;;;;;;;3.10;2.77;;;7.40;73.80;;;;;;6184130;23;20429;-75
2021/01/28 03:35:55;;;;;;;3.10;2.80;;;7.40;73.60;;;;;;6185515;23;20411;-75
2021/01/28 03:38:22;;;;;;;3.97;2.27;;;7.40;73.50;;;;;;6185865;23;20410;-75
2021/01/28 03:40:48;;;;;;;3.30;3.00;;;7.40;73.60;;;;;;6186217;23;20415;-75
2021/01/28 03:43:15;;;;;;;3.43;2.73;;;7.40;73.60;;;;;;6185714;23;20897;-75
2021/01/28 03:45:41;;;;;;;3.43;2.90;;;7.40;73.60;;;;;;6185918;23;20457;-75
2021/01/28 03:48:08;;;;;;;3.00;2.70;;;7.50;73.70;;;;;;6185905;23;20902;-74
2021/01/28 03:50:36;;;;;;;2.83;2.50;;;7.50;73.60;;;;;;6185393;23;20410;-75
2021/01/28 03:53:05;;;;;;;3.03;2.83;;;7.50;73.60;;;;;;6185561;23;20411;-75
2021/01/28 03:55:32;;;;;;;2.90;2.60;;;7.50;74.20;;;;;;6185623;23;20419;-75
2021/01/28 03:57:58;;;;;;;3.30;3.07;;;7.40;73.30;;;;;;6185378;23;20414;-75
2021/01/28 04:00:27;;;;;;;3.50;3.20;;;7.40;73.60;;;;;;6183457;23;20418;-75
2021/01/28 04:02:55;;;;;;;3.10;2.80;;;7.40;73.70;;;;;;6185359;23;20411;-75
2021/01/28 04:05:22;;;;;;;3.77;3.07;;;7.40;74.00;;;;;;6184987;23;20448;-75
2021/01/28 04:07:49;;;;;;;2.70;2.07;;;7.50;74.20;;;;;;6185156;23;20460;-75
2021/01/28 04:10:19;;;;;;;3.20;2.90;;;7.50;74.20;;;;;;6185501;23;20959;-75
2021/01/28 04:12:46;;;;;;;2.40;2.30;;;7.50;74.30;;;;;;6185443;23;20919;-77
2021/01/28 04:15:14;;;;;;;6.13;2.90;;;7.60;74.50;;;;;;6185420;23;20421;-77
2021/01/28 04:17:41;;;;;;;1.90;1.80;;;7.60;74.60;;;;;;6185634;23;20414;-77
2021/01/28 04:20:10;;;;;;;3.27;2.70;;;7.60;74.40;;;;;;6185785;23;20406;-77
2021/01/28 04:22:37;;;;;;;2.60;2.40;;;7.60;74.40;;;;;;6186060;23;20439;-76
2021/01/28 04:25:04;;;;;;;4.40;3.17;;;7.60;74.30;;;;;;6185289;23;20453;-76
2021/01/28 04:27:31;;;;;;;3.40;3.10;;;7.60;74.60;;;;;;6183036;23;20427;-76
2021/01/28 04:29:58;;;;;;;3.53;3.23;;;7.60;75.20;;;;;;6185551;23;20411;-76
2021/01/28 04:32:25;;;;;;;4.17;3.77;;;7.60;74.60;;;;;;6185294;23;20919;-77
2021/01/28 04:34:51;;;;;;;4.27;3.87;;;7.60;74.70;;;;;;6185539;23;20912;-77
2021/01/28 04:37:18;;;;;;;4.40;3.20;;;7.70;74.90;;;;;;6185883;23;20787;-77
2021/01/28 04:39:45;;;;;;;4.87;3.57;;;7.70;74.40;;;;;;6185367;23;20412;-77
2021/01/28 04:42:15;;;;;;;4.63;3.87;;;7.70;74.40;;;;;;6185295;23;20405;-77
2021/01/28 04:44:43;;;;;;;4.33;3.57;;;7.70;74.30;;;;;;6183984;23;20422;-77
2021/01/28 04:47:15;;;;;;;6.27;4.53;;;7.60;74.00;;;;;;6185415;23;20512;-77
2021/01/28 04:49:47;;;;;;;7.57;5.37;;;7.60;73.90;;;;;;6185093;23;20422;-76
2021/01/28 04:52:15;;;;;;;4.40;3.87;;;7.60;74.10;;;;;;6184640;23;20407;-77
2021/01/28 04:54:43;;;;;;;4.87;4.27;;;7.60;74.20;;;;;;6183576;23;20415;-77
2021/01/28 04:57:13;;;;;;;4.90;4.50;;;7.60;74.10;;;;;;6185743;23;20462;-78
2021/01/28 04:59:43;;;;;;;6.60;4.50;;;7.70;74.00;;;;;;6185579;23;20417;-76
2021/01/28 05:02:16;;;;;;;5.67;4.07;;;7.70;74.00;;;;;;6185009;23;20449;-75
2021/01/28 05:04:46;;;;;;;5.27;4.37;;;7.70;73.90;;;;;;6184734;23;20418;-76
2021/01/28 05:07:19;;;;;;;5.27;4.77;;;7.70;73.80;;;;;;6185128;23;20409;-76
2021/01/28 05:10:01;;;;;;;5.23;4.50;;;7.70;73.50;;;;;;6183770;23;21033;-75
2021/01/28 05:12:27;;;;;;;4.63;4.10;;;7.70;73.50;;;;;;6181412;23;20810;-76
2021/01/28 05:15:11;;;;;;;5.03;4.20;;;7.80;73.50;;;;;;6180986;23;20420;-76
2021/01/28 05:17:38;;;;;;;5.00;4.50;;;7.80;73.40;;;;;;6180936;23;20412;-75
2021/01/28 05:20:07;;;;;;;6.20;4.17;;;7.80;73.30;;;;;;6180375;23;20409;-76
2021/01/28 05:22:37;;;;;;;4.47;4.00;;;7.80;73.20;;;;;;6181599;23;20495;-76
2021/01/28 05:25:14;;;;;;;5.07;4.40;;;7.70;73.00;;;;;;6181494;23;20448;-75
2021/01/28 05:27:41;;;;;;;4.73;3.73;;;7.70;73.10;;;;;;6180763;23;20412;-75
2021/01/28 05:30:15;;;;;;;6.53;4.93;;;7.70;73.30;;;;;;6181675;23;20420;-75
2021/01/28 05:32:43;;;;;;;5.00;4.43;;;7.80;73.20;;;;;;6180970;23;20420;-75
2021/01/28 05:35:24;;;;;;;5.43;4.47;;;7.80;73.20;;;;;;6180720;23;20423;-76
2021/01/28 05:38:03;;;;;;;4.90;4.20;;;7.80;73.20;;;;;;6181211;23;20413;-73
2021/01/28 05:40:30;;;;;;;5.70;4.83;;;7.80;72.90;;;;;;6180904;23;20413;-76
2021/01/28 05:42:56;;;;;;;5.83;4.83;;;7.80;72.90;;;;;;6181813;23;20419;-76
2021/01/28 05:45:36;;;;;;;5.30;4.80;;;7.80;72.80;;;;;;6182834;23;20967;-75
2021/01/28 05:48:14;;;;;;;5.67;4.40;;;7.80;72.80;;;;;;6179031;23;20432;-76
2021/01/28 05:50:41;;;;;;;4.63;3.83;;;7.80;72.90;;;;;;6180748;23;20464;-75
2021/01/28 05:53:14;;;;;;;6.07;4.23;;;7.80;72.70;;;;;;6182200;23;20731;-75
2021/01/28 05:55:41;;;;;;;7.90;4.30;;;7.80;72.80;;;;;;6180797;23;20482;-74
2021/01/28 05:58:18;;;;;;;4.67;3.90;;;7.80;72.90;;;;;;6181231;23;20423;-75
2021/01/28 06:00:51;;;;;;;6.30;4.40;;;7.80;73.00;;;;;;6181251;23;20421;-75
2021/01/28 06:03:43;;;;;;;5.07;4.30;;;7.80;73.20;;;;;;6181529;23;20422;-75
2021/01/28 06:06:42;;;;;;;4.70;4.03;;;7.80;73.20;;;;;;6181077;23;20458;-75
2021/01/28 06:09:27;;;;;;;6.60;4.33;;;7.70;73.30;;;;;;6176325;23;20446;-76
2021/01/28 06:12:20;;;;;;;4.17;3.77;;;7.60;73.60;;;;;;6180693;23;20935;-75
2021/01/28 06:15:05;;;;;;;5.70;4.20;;;7.60;74.20;;;;;;6179608;23;20410;-75
2021/01/28 06:18:02;;;;;;;5.37;4.10;;;7.60;74.50;;;;;;6180763;23;20414;-76
2021/01/28 06:20:45;;;;;;;4.43;4.03;;;7.50;74.70;;;;;;6180928;23;20419;-76
2021/01/28 06:23:41;;;;;;;6.30;4.93;;;7.50;75.20;;;;;;6181262;23;20790;-75
2021/01/28 06:26:32;;;;;;;3.60;3.30;;;7.60;75.60;;;;;;6170345;23;20451;-76
2021/01/28 06:29:22;;;;;;;4.33;3.93;;;7.50;75.90;;;;;;6180524;23;20754;-76
2021/01/28 06:32:02;;;;;;;4.90;3.67;;;7.50;76.10;;;;;;6180978;23;20446;-77
2021/01/28 06:34:54;;;;;;;6.60;3.50;;;7.50;76.30;;;;;;6179115;23;20458;-77
2021/01/28 06:37:39;;;;;;;4.00;3.60;;;7.50;76.40;;;;;;6179990;23;20410;-77
2021/01/28 06:40:10;;;;;;;5.17;3.73;;;7.50;76.60;;;;;;6179878;23;20416;-76
2021/01/28 06:42:43;;;;;;;4.70;3.53;;;7.50;76.80;;;;;;6180020;23;20413;-76
2021/01/28 06:45:14;;;;;;;4.33;3.93;;;7.60;77.20;;;;;;6183895;23;20826;-76
2021/01/28 06:47:46;;;;;;;4.00;3.63;;;7.60;77.20;;;;;;6184291;23;20408;-76
2021/01/28 06:50:20;;;;;;;4.10;3.27;;;7.70;77.20;;;;;;6181035;23;20418;-76
2021/01/28 06:53:03;;;;;;;5.13;3.70;;;7.70;77.30;;;;;;6183828;23;20772;-75
2021/01/28 06:55:36;;;;;;;5.30;4.30;;;7.70;77.40;;;;;;6184025;23;20416;-76
2021/01/28 06:58:27;;;;;;;4.00;3.23;;;7.70;77.60;;;;;;6184691;23;20731;-76
2021/01/28 07:00:59;;;;;;;3.60;2.80;;;7.70;78.00;;;;;;6184994;23;20418;-76
2021/01/28 07:03:32;;;;;;;4.10;3.20;;;7.70;78.30;;;;;;6183878;23;20410;-76
2021/01/28 07:06:08;;;;;;;5.23;3.40;;;7.70;78.50;;;;;;6184457;23;20452;-76
2021/01/28 07:08:53;;;;;;;4.80;3.07;;;7.70;78.70;;;;;;6182175;23;20467;-75
2021/01/28 07:11:32;;;;;;;5.00;3.30;;;7.70;78.70;;;;;;6183088;23;20416;-76
2021/01/28 07:14:00;;;;;;;6.80;3.57;;;7.70;78.90;;;;;;6184531;23;20442;-75
2021/01/28 07:16:36;;;;;;;3.90;3.20;;;7.60;79.00;;;;;;6186038;23;20451;-75
2021/01/28 07:19:10;;;;;;;4.73;4.20;;;7.60;79.10;;;;;;6185019;23;20405;-76
2021/01/28 07:21:40;;;;;;;4.70;3.60;;;7.60;79.40;;;;;;6185507;23;20910;-75
2021/01/28 07:24:11;;;;;;;4.17;3.17;;;7.60;79.60;;;;;;6185968;23;20420;-75
2021/01/28 07:27:00;;;;;;;4.77;4.37;;;7.60;79.90;;;;;;6185397;23;20451;-75
2021/01/28 07:29:50;;;;;;;3.70;3.40;;;7.70;80.30;;;;;;6176478;23;20424;-75
2021/01/28 07:32:54;;;;;;;3.90;3.47;;;7.60;80.30;;;;;;6185089;23;20921;-75
2021/01/28 07:35:43;;;;;;;4.30;3.40;;;7.60;80.60;;;;;;6182893;23;20416;-74
2021/01/28 07:38:37;;;;;;;5.80;3.57;;;7.60;81.00;;;;;;6170193;23;20413;-75
2021/01/28 07:41:05;;;;;;;3.30;2.97;;;7.60;81.10;;;;;;6185617;23;20459;-75
2021/01/28 07:43:34;;;;;;;4.37;3.47;;;7.60;81.50;;;;;;6185365;23;20465;-76
2021/01/28 07:46:15;;;;;;;6.20;3.77;;;7.50;81.90;;;;;;6185642;23;20459;-74
2021/01/28 07:48:42;;;;;;;5.50;4.63;;;7.50;82.30;;;;;;6184463;23;20466;-74
2021/01/28 07:51:28;;;;;;;4.57;4.07;;;7.50;82.70;;;;;;6184981;23;20443;-75
2021/01/28 07:53:57;;;;;;;4.80;3.87;;;7.50;83.20;;;;;;6185887;23;20407;-75
2021/01/28 07:56:47;;;;;;;4.20;3.63;;;7.40;83.50;;;;;;6185271;23;20481;-75
2021/01/28 07:59:18;;;;;;;4.63;3.87;;;7.50;83.60;;;;;;6185395;23;20420;-75
2021/01/28 08:01:51;;;;;;;3.43;3.13;;;7.50;83.70;;;;;;6184168;23;20443;-74
2021/01/28 08:04:28;;;;;;;3.80;3.50;;;7.50;84.10;;;;;;6186005;23;20453;-75
2021/01/28 08:07:02;;;;;;;3.33;3.03;;;7.50;84.30;;;;;;6186033;23;20458;-76
2021/01/28 08:09:31;;;;;;;4.90;3.47;;;7.50;84.60;;;;;;6186970;23;20854;-75
2021/01/28 08:11:58;;;;;;;4.23;3.83;;;7.50;84.90;;;;;;6186624;23;20429;-75
2021/01/28 08:14:29;;;;;;;3.50;2.90;;;7.50;85.10;;;;;;6185540;23;20421;-75
2021/01/28 08:16:57;;;;;;;3.47;2.73;;;7.50;85.40;;;;;;6185674;23;20773;-75
2021/01/28 08:19:25;;;;;;;3.40;3.00;;;7.50;85.40;;;;;;6185452;23;20777;-75
2021/01/28 08:22:03;;;;;;;3.70;3.30;;;7.50;85.20;;;;;;6185269;23;20413;-75
2021/01/28 08:24:39;;;;;;;3.33;2.80;;;7.50;85.50;;;;;;6185424;23;20419;-77
2021/01/28 08:27:16;;;;;;;3.53;3.23;;;7.50;85.70;;;;;;6185045;23;20450;-77
2021/01/28 08:29:43;;;;;;;3.50;2.60;;;7.60;85.80;;;;;;6183024;23;20423;-76
2021/01/28 08:32:27;;;;;;;3.50;2.63;;;7.50;85.70;;;;;;6185798;23;20430;-76
2021/01/28 08:35:00;;;;;;;2.70;2.27;;;7.60;86.10;;;;;;6185681;23;20426;-77
2021/01/28 08:37:33;;;;;;;3.13;2.27;;;7.60;87.20;;;;;;6184651;23;20420;-78
2021/01/28 08:40:01;;;;;;;3.53;2.50;;;7.60;86.40;;;;;;6184941;23;20407;-76
2021/01/28 08:42:29;;;;;;;1.80;1.70;;;7.60;86.80;;;;;;6185180;23;20412;-76
2021/01/28 08:45:15;;;;;;;2.10;1.90;;;7.60;86.80;;;;;;6184710;23;20890;-75
2021/01/28 08:47:53;;;;;;;1.80;1.70;;;7.60;86.80;;;;;;6185348;23;20420;-75
2021/01/28 08:50:27;;;;;;;2.73;1.90;;;7.60;87.00;;;;;;6185030;23;20411;-78
2021/01/28 08:53:00;;;;;;;3.37;2.07;;;7.60;87.20;;;;;;6185452;23;20434;-77
2021/01/28 08:55:31;;;;;;;2.30;1.97;;;7.60;87.50;;;;;;6184834;23;20423;-78
2021/01/28 08:58:02;;;;;;;1.87;1.63;;;7.60;87.70;;;;;;6182130;23;20419;-77
2021/01/28 09:00:29;;;;;;;2.50;2.30;;;7.70;87.80;;;;;;6184472;23;20439;-77
2021/01/28 09:02:57;;;;;;;2.20;2.10;;;7.70;87.60;;;;;;6184877;23;20431;-77
2021/01/28 09:05:26;;;;;;;2.33;2.13;;;7.70;87.70;;;;;;6184647;23;20453;-76
2021/01/28 09:07:55;;;;;;;2.30;1.77;;;7.70;87.50;;;;;;6184827;23;20430;-77
2021/01/28 09:10:34;;;;;;;2.10;2.00;;;7.70;87.90;;;;;;6185188;23;20405;-76
2021/01/28 09:13:29;;;;;;;4.43;4.07;;;7.80;87.80;;;;;;6184149;23;20425;-76
2021/01/28 09:16:09;;;;;;;3.30;2.23;;;7.80;87.60;;;;;;6116253;23;20425;-76
2021/01/28 09:18:37;;;;;;;1.80;1.70;;;7.80;87.80;;;;;;6184879;23;20419;-76
2021/01/28 09:21:12;;;;;;;2.57;1.70;;;7.80;87.90;;;;;;6183757;23;20431;-76
2021/01/28 09:23:54;;;;;;;2.43;2.23;;;7.90;88.20;;;;;;6182144;23;20436;-77
2021/01/28 09:26:24;;;;;;;3.80;2.80;;;7.90;88.00;;;;;;6184703;23;20452;-76
2021/01/28 09:28:51;;;;;;;3.30;2.90;;;7.90;88.10;;;;;;6184695;23;20413;-77
2021/01/28 09:31:27;;;;;;;2.33;1.97;;;7.90;88.10;;;;;;6183873;23;20471;-76
2021/01/28 09:33:54;;;;;;;3.77;1.90;;;8.00;88.30;;;;;;6184376;23;20435;-76
2021/01/28 09:36:25;;;;;;;2.60;1.80;;;8.10;88.40;;;;;;6182845;23;20504;-77
2021/01/28 09:39:01;;;;;;;1.70;1.57;;;8.10;88.00;;;;;;6183111;23;20413;-76
2021/01/28 09:41:34;;;;;;;1.93;1.83;;;8.20;88.20;;;;;;6183088;23;20408;-76
2021/01/28 09:44:01;;;;;;;2.00;1.90;;;8.20;87.90;;;;;;6184954;23;20412;-76
2021/01/28 09:46:30;;;;;;;4.07;2.30;;;8.20;88.00;;;;;;6183904;23;20457;-79
2021/01/28 09:49:00;;;;;;;1.80;1.60;;;8.20;87.70;;;;;;6183889;23;20412;-76
2021/01/28 09:51:30;;;;;;;3.30;1.80;;;8.20;87.50;;;;;;6182424;23;20939;-77
2021/01/28 09:54:17;;;;;;;1.63;1.53;;;8.30;87.50;;;;;;6184496;23;20412;-76
2021/01/28 09:56:44;;;;;;;1.90;1.80;;;8.30;87.60;;;;;;6184019;23;20764;-77
2021/01/28 09:59:13;;;;;;;1.90;1.80;;;8.30;87.70;;;;;;6184761;23;20421;-77
2021/01/28 10:01:39;;;;;;;2.07;1.90;;;8.40;87.50;;;;;;6184259;23;20420;-77
2021/01/28 10:04:07;;;;;;;2.10;1.83;;;8.40;87.50;;;;;;6184946;23;20412;-76
2021/01/28 10:06:33;;;;;;;1.93;1.83;;;8.40;87.20;;;;;;6184504;23;20787;-76
2021/01/28 10:09:00;;;;;;;2.57;2.00;;;8.40;87.20;;;;;;6184461;23;20448;-77
2021/01/28 10:11:26;;;;;;;5.20;2.30;;;8.40;87.50;;;;;;6185037;23;20410;-77
2021/01/28 10:13:54;;;;;;;2.20;2.00;;;8.40;87.60;;;;;;6184259;23;20420;-78
2021/01/28 10:16:21;;;;;;;5.00;2.30;;;8.40;87.80;;;;;;6183993;23;20795;-76
2021/01/28 10:18:47;;;;;;;3.13;1.73;;;8.50;88.10;;;;;;6182269;23;20425;-77
2021/01/28 10:21:14;;;;;;;1.33;1.23;;;8.50;88.30;;;;;;6184197;23;20437;-76
2021/01/28 10:23:40;;;;;;;3.03;1.60;;;8.50;88.40;;;;;;6184635;23;20427;-77
2021/01/28 10:26:07;;;;;;;2.73;1.90;;;8.50;88.60;;;;;;6184591;23;20457;-77
2021/01/28 10:28:36;;;;;;;1.77;1.60;;;8.60;88.90;;;;;;6184202;23;20920;-77
2021/01/28 10:31:06;;;;;;;3.17;2.00;;;8.60;88.80;;;;;;6184587;23;20436;-78
2021/01/28 10:33:33;;;;;;;2.27;1.87;;;8.60;89.10;;;;;;6184550;23;20419;-77
2021/01/28 10:36:00;;;;;;;3.40;2.10;;;8.60;89.10;;;;;;6184169;23;20477;-77
2021/01/28 10:38:27;;;;;;;2.80;2.07;;;8.60;89.40;;;;;;6186083;23;20439;-77
2021/01/28 10:40:54;;;;;;;3.10;2.20;;;8.60;89.50;;;;;;6186571;23;20450;-77
2021/01/28 10:43:22;;;;;;;2.00;1.57;;;8.60;89.60;;;;;;6184545;23;20410;-77
2021/01/28 10:45:49;;;;;;;4.03;2.07;;;8.60;89.80;;;;;;6180703;23;20457;-77
2021/01/28 10:48:16;;;;;;;2.80;2.47;;;8.60;90.00;;;;;;6184196;23;20408;-78
2021/01/28 10:50:44;;;;;;;3.03;2.07;;;8.60;90.10;;;;;;6185573;23;20446;-77
2021/01/28 10:53:11;;;;;;;1.13;1.13;;;8.60;90.60;;;;;;6186360;23;20453;-77
2021/01/28 10:55:38;;;;;;;1.70;1.60;;;8.60;90.30;;;;;;6186421;23;20413;-77
2021/01/28 10:58:04;;;;;;;1.50;1.40;;;8.70;90.30;;;;;;6186129;23;21204;-77
2021/01/28 11:00:33;;;;;;;2.43;1.83;;;8.70;90.30;;;;;;6187285;23;20413;-78
2021/01/28 11:03:00;;;;;;;3.07;2.00;;;8.80;90.40;;;;;;6186330;23;20417;-77
2021/01/28 11:05:29;;;;;;;2.87;1.77;;;8.90;90.50;;;;;;6186185;23;20417;-78
2021/01/28 11:07:57;;;;;;;1.70;1.40;;;9.00;90.40;;;;;;6186489;23;20903;-78
2021/01/28 11:10:24;;;;;;;2.70;1.60;;;9.10;90.10;;;;;;6185531;23;20424;-78
2021/01/28 11:12:51;;;;;;;2.03;1.83;;;9.10;90.40;;;;;;6183152;23;20426;-76
2021/01/28 11:15:19;;;;;;;1.53;1.43;;;9.20;90.00;;;;;;6185308;23;20409;-76
2021/01/28 11:17:46;;;;;;;2.00;1.90;;;9.20;89.80;;;;;;6185044;23;20429;-77
2021/01/28 11:20:13;;;;;;;1.50;1.23;;;9.30;89.70;;;;;;6185911;23;20413;-78
2021/01/28 11:22:42;;;;;;;1.97;1.87;;;9.30;89.70;;;;;;6185210;23;20420;-79
2021/01/28 11:25:12;;;;;;;3.57;1.50;;;9.30;89.70;;;;;;6186008;23;20824;-77
2021/01/28 11:27:39;;;;;;;4.70;1.50;;;9.20;89.50;;;;;;6186722;23;20768;-77
2021/01/28 11:30:08;;;;;;;2.73;1.73;;;9.30;89.80;;;;;;6185436;23;20414;-78
2021/01/28 11:32:35;;;;;;;1.73;1.50;;;9.30;89.70;;;;;;6185710;23;20793;-77
2021/01/28 11:35:01;;;;;;;1.67;1.50;;;9.30;89.70;;;;;;6184316;23;20885;-76
2021/01/28 11:37:28;;;;;;;1.57;1.47;;;9.40;90.20;;;;;;6185153;23;20798;-77
2021/01/28 11:39:56;;;;;;;1.70;1.60;;;9.50;90.30;;;;;;6183704;23;20414;-76
2021/01/28 11:42:22;;;;;;;1.70;1.60;;;9.70;90.20;;;;;;6186134;23;20406;-76
2021/01/28 11:44:49;;;;;;;1.60;1.50;;;9.80;90.00;;;;;;6185792;23;20440;-76
2021/01/28 11:47:19;;;;;;;1.37;1.27;;;10.00;88.90;;;;;;6185968;23;20454;-76
2021/01/28 11:49:45;;;;;;;2.20;1.83;;;10.10;88.30;;;;;;6186320;23;20409;-77
2021/01/28 11:52:12;;;;;;;2.30;2.03;;;10.20;88.10;;;;;;6185437;23;20422;-77
2021/01/28 11:54:39;;;;;;;3.10;1.50;;;10.20;87.80;;;;;;6185280;23;20409;-76
2021/01/28 11:57:14;;;;;;;3.87;2.00;;;10.30;87.60;;;;;;6185426;23;20932;-78
2021/01/28 11:59:40;;;;;;;1.67;1.57;;;10.30;87.40;;;;;;6185589;23;20487;-77
2021/01/28 12:02:07;;;;;;;2.00;1.90;;;10.30;87.10;;;;;;6184907;23;20416;-78
2021/01/28 12:04:33;;;;;;;1.37;1.23;;;10.30;87.20;;;;;;6185455;23;20462;-76
2021/01/28 12:07:00;;;;;;;1.60;1.50;;;10.30;87.40;;;;;;6182834;23;20460;-76
2021/01/28 12:09:26;;;;;;;1.80;1.70;;;10.30;87.00;;;;;;6185664;23;20955;-76
2021/01/28 12:11:53;;;;;;;1.83;1.60;;;10.40;87.10;;;;;;6185066;23;20477;-76
2021/01/28 12:14:20;;;;;;;2.23;1.47;;;10.50;87.00;;;;;;6184843;23;20410;-76
2021/01/28 12:16:47;;;;;;;1.70;1.50;;;10.60;87.00;;;;;;6185118;23;20930;-77
2021/01/28 12:19:14;;;;;;;2.90;1.83;;;10.80;86.90;;;;;;6184933;23;20443;-77
2021/01/28 12:21:40;;;;;;;1.47;1.37;;;10.80;86.20;;;;;;6185323;23;20437;-77
2021/01/28 12:24:07;;;;;;;1.10;1.10;;;10.90;86.10;;;;;;6185965;23;20412;-77
2021/01/28 12:26:34;;;;;;;2.30;2.00;;;10.90;85.40;;;;;;6184654;23;20460;-76
2021/01/28 12:29:00;;;;;;;1.90;1.80;;;10.90;85.60;;;;;;6185634;23;20413;-76
2021/01/28 12:31:28;;;;;;;1.30;1.20;;;10.90;85.50;;;;;;6185206;23;20417;-76
2021/01/28 12:33:54;;;;;;;1.70;1.60;;;11.00;85.70;;;;;;6183511;23;20505;-76
2021/01/28 12:36:21;;;;;;;1.63;1.37;;;11.00;85.50;;;;;;6184445;23;20799;-77
2021/01/28 12:38:48;;;;;;;3.00;1.90;;;11.00;85.00;;;;;;6185013;23;20412;-76
2021/01/28 12:41:14;;;;;;;1.20;1.10;;;10.90;85.40;;;;;;6184969;23;20968;-76
2021/01/28 12:43:41;;;;;;;1.57;1.47;;;11.00;85.70;;;;;;6185193;23;20431;-77
2021/01/28 12:46:07;;;;;;;2.00;1.80;;;11.00;86.20;;;;;;6184057;23;20513;-76
2021/01/28 12:48:35;;;;;;;1.63;1.53;;;11.10;86.10;;;;;;6185368;23;20748;-76
2021/01/28 12:51:01;;;;;;;1.97;1.80;;;11.20;85.70;;;;;;6184892;23;20436;-76
2021/01/28 12:53:29;;;;;;;2.00;1.30;;;11.20;85.60;;;;;;6184280;23;20903;-77
2021/01/28 12:55:59;;;;;;;1.63;1.53;;;11.20;85.70;;;;;;6185094;23;20467;-76
2021/01/28 12:58:26;;;;;;;3.10;1.73;;;11.20;85.80;;;;;;6184185;23;20976;-76
2021/01/28 13:00:52;;;;;;;2.50;1.53;;;11.20;86.10;;;;;;6182690;23;20416;-77
2021/01/28 13:03:19;;;;;;;4.83;1.83;;;11.20;86.50;;;;;;6184398;23;20424;-76
2021/01/28 13:05:46;;;;;;;2.13;1.93;;;11.30;86.40;;;;;;6184660;23;20451;-77
2021/01/28 13:08:13;;;;;;;1.57;1.40;;;11.30;86.10;;;;;;6183504;23;20945;-76
2021/01/28 13:10:39;;;;;;;3.10;2.80;;;11.30;86.50;;;;;;6185023;23;20424;-76
2021/01/28 13:13:06;;;;;;;1.63;1.53;;;11.30;86.60;;;;;;6184713;23;20700;-76